^^
Meteo Knjazevac Station Historical Data
Daily Summary for April 20, 2021 Units:  Both    English   Metric
Daily Weekly Monthly Yearly Custom
  High: Low: Average:
Temperature: 80.8 °F /  27.1 °C 66 °F /  18.9 °C 72.4 °F /  22.4 °C
Dew Point: 71.1 °F /  21.7 °C 64.6 °F /  18.1 °C 67.9 °F /  19.9 °C
Humidity: 99% 72% 86%
Wind Speed: 12mph /  19.3km/h - 3.8mph /  6.1km/h
Wind Gust: 18mph /  29km/h - -
Wind- - SW
Pressure: 30.07 in /  1018.2 hPa 29.94 in /  1013.8 hPa -
Precipitation: 0.00 in /  0 mm    
Historical Graphs
 
 
Tabular Data for April 20, 2021
Time Temperature Dew Point Pressure Wind Wind Speed Wind Gust Humidity Rainfall Rate (Hourly) solar Conditions
00:00 67.8 °F /  19.9 °C 66.3 °F /  19.1 °C 29.95in /  1014.1hPa NNW 1mph /  1.6km/h 2mph /  3.2km/h 95% 0.00in /  0mm 0 W/m2
00:10 67.8 °F /  19.9 °C 66.3 °F /  19.1 °C 29.95in /  1014.1hPa Calm   2mph /  3.2km/h 95% 0.00in /  0mm 0 W/m2
00:20 67.5 °F /  19.7 °C 66.1 °F /  18.9 °C 29.95in /  1014.1hPa Calm   2mph /  3.2km/h 95% 0.00in /  0mm 0 W/m2
00:30 67.3 °F /  19.6 °C 65.8 °F /  18.8 °C 29.95in /  1014.1hPa WNW 1mph /  1.6km/h 4mph /  6.4km/h 95% 0.00in /  0mm 0 W/m2
00:40 66.9 °F /  19.4 °C 65.7 °F /  18.7 °C 29.95in /  1014.1hPa NW 2mph /  3.2km/h 3mph /  4.8km/h 96% 0.00in /  0mm 0 W/m2
00:50 66.7 °F /  19.3 °C 65.6 °F /  18.7 °C 29.95in /  1014.1hPa WNW 1mph /  1.6km/h 5mph /  8km/h 96% 0.00in /  0mm 0 W/m2
01:00 66.7 °F /  19.3 °C 65.6 °F /  18.7 °C 29.95in /  1014.1hPa West 1mph /  1.6km/h 3mph /  4.8km/h 96% 0.00in /  0mm 0 W/m2
01:10 66.6 °F /  19.2 °C 65.4 °F /  18.6 °C 29.95in /  1014.1hPa West 2mph /  3.2km/h 3mph /  4.8km/h 96% 0.00in /  0mm 0 W/m2
01:20 66.6 °F /  19.2 °C 65.4 °F /  18.6 °C 29.95in /  1014.1hPa WSW 2mph /  3.2km/h 5mph /  8km/h 96% 0.00in /  0mm 0 W/m2
01:30 66.6 °F /  19.2 °C 66 °F /  18.9 °C 29.95in /  1014.1hPa SW 2mph /  3.2km/h 3mph /  4.8km/h 98% 0.00in /  0mm 0 W/m2
01:40 66.4 °F /  19.1 °C 65.8 °F /  18.8 °C 29.95in /  1014.1hPa SSE 2mph /  3.2km/h 5mph /  8km/h 98% 0.00in /  0mm 0 W/m2
01:50 66.4 °F /  19.1 °C 65.8 °F /  18.8 °C 29.95in /  1014.1hPa SW 1mph /  1.6km/h 3mph /  4.8km/h 98% 0.00in /  0mm 0 W/m2
02:00 66.4 °F /  19.1 °C 65.8 °F /  18.8 °C 29.95in /  1014.1hPa WSW 1mph /  1.6km/h 2mph /  3.2km/h 98% 0.00in /  0mm 0 W/m2
02:10 66.4 °F /  19.1 °C 65.8 °F /  18.8 °C 29.95in /  1014.1hPa Calm   3mph /  4.8km/h 98% 0.00in /  0mm 0 W/m2
02:20 66.4 °F /  19.1 °C 65.8 °F /  18.8 °C 29.95in /  1014.1hPa WSW 2mph /  3.2km/h 3mph /  4.8km/h 98% 0.00in /  0mm 0 W/m2
02:30 66.4 °F /  19.1 °C 65.8 °F /  18.8 °C 29.95in /  1014.1hPa SW 1mph /  1.6km/h 2mph /  3.2km/h 98% 0.00in /  0mm 0 W/m2
02:40 66.2 °F /  19 °C 65.9 °F /  18.8 °C 29.95in /  1014.1hPa SW 1mph /  1.6km/h 2mph /  3.2km/h 99% 0.00in /  0mm 0 W/m2
02:50 66.2 °F /  19 °C 65.9 °F /  18.8 °C 29.95in /  1014.1hPa SE 1mph /  1.6km/h 4mph /  6.4km/h 99% 0.00in /  0mm 0 W/m2
03:00 66.2 °F /  19 °C 65.9 °F /  18.8 °C 29.94in /  1013.8hPa SE 2mph /  3.2km/h 6mph /  9.7km/h 99% 0.00in /  0mm 0 W/m2
03:10 66.2 °F /  19 °C 65.9 °F /  18.8 °C 29.94in /  1013.8hPa Calm   6mph /  9.7km/h 99% 0.00in /  0mm 0 W/m2
03:20 66.2 °F /  19 °C 65.9 °F /  18.8 °C 29.94in /  1013.8hPa East 1mph /  1.6km/h 6mph /  9.7km/h 99% 0.00in /  0mm 0 W/m2
03:30 66.2 °F /  19 °C 65.9 °F /  18.8 °C 29.94in /  1013.8hPa ENE 2mph /  3.2km/h 3mph /  4.8km/h 99% 0.00in /  0mm 0 W/m2
03:40 66.2 °F /  19 °C 65.9 °F /  18.8 °C 29.94in /  1013.8hPa SSW 3mph /  4.8km/h 6mph /  9.7km/h 99% 0.00in /  0mm 0 W/m2
03:50 66.4 °F /  19.1 °C 66.1 °F /  18.9 °C 29.94in /  1013.8hPa SW 1mph /  1.6km/h 3mph /  4.8km/h 99% 0.00in /  0mm 0 W/m2
04:00 66.4 °F /  19.1 °C 66.1 °F /  18.9 °C 29.94in /  1013.8hPa WSW 1mph /  1.6km/h 3mph /  4.8km/h 99% 0.00in /  0mm 0 W/m2
04:10 66.4 °F /  19.1 °C 66.1 °F /  18.9 °C 29.94in /  1013.8hPa Calm   2mph /  3.2km/h 99% 0.00in /  0mm 0 W/m2
04:20 66.4 °F /  19.1 °C 66.1 °F /  18.9 °C 29.94in /  1013.8hPa North 1mph /  1.6km/h 2mph /  3.2km/h 99% 0.00in /  0mm 0 W/m2
04:30 66.4 °F /  19.1 °C 66.1 °F /  18.9 °C 29.95in /  1014.1hPa Calm   2mph /  3.2km/h 99% 0.00in /  0mm 0 W/m2
04:40 66.2 °F /  19 °C 65.9 °F /  18.8 °C 29.95in /  1014.1hPa West 2mph /  3.2km/h 5mph /  8km/h 99% 0.00in /  0mm 0 W/m2
04:50 66 °F /  18.9 °C 65.7 °F /  18.7 °C 29.95in /  1014.1hPa WSW 2mph /  3.2km/h 4mph /  6.4km/h 99% 0.00in /  0mm 0 W/m2
05:00 66.1 °F /  18.9 °C 65.8 °F /  18.8 °C 29.95in /  1014.1hPa SW 2mph /  3.2km/h 3mph /  4.8km/h 99% 0.00in /  0mm 0 W/m2
05:20 66.2 °F /  19 °C 65.9 °F /  18.8 °C 29.95in /  1014.1hPa SW 2mph /  3.2km/h 5mph /  8km/h 99% 0.00in /  0mm 6 W/m2
05:30 66.4 °F /  19.1 °C 66.1 °F /  18.9 °C 29.95in /  1014.1hPa SW 1mph /  1.6km/h 3mph /  4.8km/h 99% 0.00in /  0mm 10 W/m2
05:40 66.4 °F /  19.1 °C 66.1 °F /  18.9 °C 29.95in /  1014.1hPa SW 1mph /  1.6km/h 3mph /  4.8km/h 99% 0.00in /  0mm 13 W/m2
05:50 66.6 °F /  19.2 °C 66.3 °F /  19.1 °C 29.95in /  1014.1hPa SSW 1mph /  1.6km/h 2mph /  3.2km/h 99% 0.00in /  0mm 19 W/m2
06:00 66.6 °F /  19.2 °C 66.3 °F /  19.1 °C 29.96in /  1014.4hPa Calm   2mph /  3.2km/h 99% 0.00in /  0mm 25 W/m2
06:10 66.7 °F /  19.3 °C 66.5 °F /  19.2 °C 29.96in /  1014.4hPa SSW 1mph /  1.6km/h 2mph /  3.2km/h 99% 0.00in /  0mm 32 W/m2
06:20 66.9 °F /  19.4 °C 66.6 °F /  19.2 °C 29.96in /  1014.4hPa Calm   2mph /  3.2km/h 99% 0.00in /  0mm 42 W/m2
06:30 66.9 °F /  19.4 °C 66.6 °F /  19.2 °C 29.96in /  1014.4hPa NE 2mph /  3.2km/h 3mph /  4.8km/h 99% 0.00in /  0mm 36 W/m2
06:40 67.2 °F /  19.6 °C 66.9 °F /  19.4 °C 29.96in /  1014.4hPa Calm   4mph /  6.4km/h 99% 0.00in /  0mm 54 W/m2
06:50 67.5 °F /  19.7 °C 66.9 °F /  19.4 °C 29.96in /  1014.4hPa NNE 1mph /  1.6km/h 3mph /  4.8km/h 98% 0.00in /  0mm 33 W/m2
07:00 67.6 °F /  19.8 °C 67.1 °F /  19.5 °C 29.96in /  1014.4hPa SW 1mph /  1.6km/h 3mph /  4.8km/h 98% 0.00in /  0mm 68 W/m2
07:10 67.8 °F /  19.9 °C 67.2 °F /  19.6 °C 29.96in /  1014.4hPa WSW 1mph /  1.6km/h 3mph /  4.8km/h 98% 0.00in /  0mm 57 W/m2
07:20 68 °F /  20 °C 67.4 °F /  19.7 °C 29.96in /  1014.4hPa SW 3mph /  4.8km/h 6mph /  9.7km/h 98% 0.00in /  0mm 120 W/m2
07:30 68.4 °F /  20.2 °C 67.8 °F /  19.9 °C 29.97in /  1014.8hPa SW 3mph /  4.8km/h 6mph /  9.7km/h 98% 0.00in /  0mm 96 W/m2
07:40 68.5 °F /  20.3 °C 67.4 °F /  19.7 °C 29.97in /  1014.8hPa SW 2mph /  3.2km/h 5mph /  8km/h 96% 0.00in /  0mm 109 W/m2
07:50 68.9 °F /  20.5 °C 67.7 °F /  19.8 °C 29.97in /  1014.8hPa SW 1mph /  1.6km/h 4mph /  6.4km/h 96% 0.00in /  0mm 129 W/m2
08:00 69.2 °F /  20.7 °C 68 °F /  20 °C 29.97in /  1014.8hPa SSW 2mph /  3.2km/h 4mph /  6.4km/h 96% 0.00in /  0mm 180 W/m2
08:10 69.6 °F /  20.9 °C 68.4 °F /  20.2 °C 29.97in /  1014.8hPa SW 2mph /  3.2km/h 5mph /  8km/h 96% 0.00in /  0mm 232 W/m2
08:20 70 °F /  21.1 °C 68.5 °F /  20.3 °C 29.97in /  1014.8hPa SSW 2mph /  3.2km/h 3mph /  4.8km/h 95% 0.00in /  0mm 282 W/m2
08:30 70.5 °F /  21.4 °C 68.7 °F /  20.4 °C 29.97in /  1014.8hPa South 1mph /  1.6km/h 3mph /  4.8km/h 94% 0.00in /  0mm 236 W/m2
08:40 70.9 °F /  21.6 °C 68.8 °F /  20.4 °C 29.98in /  1015.1hPa SW 2mph /  3.2km/h 4mph /  6.4km/h 93% 0.00in /  0mm 220 W/m2
08:50 71.1 °F /  21.7 °C 68.9 °F /  20.5 °C 29.98in /  1015.1hPa SSW 3mph /  4.8km/h 5mph /  8km/h 93% 0.00in /  0mm 402 W/m2
09:00 71.7 °F /  22.1 °C 69 °F /  20.6 °C 29.97in /  1014.8hPa SW 3mph /  4.8km/h 7mph /  11.3km/h 91% 0.00in /  0mm 532 W/m2
09:10 72.8 °F /  22.7 °C 69.7 °F /  20.9 °C 29.97in /  1014.8hPa SW 2mph /  3.2km/h 7mph /  11.3km/h 90% 0.00in /  0mm 494 W/m2
09:20 73.9 °F /  23.3 °C 69.8 °F /  21 °C 29.97in /  1014.8hPa SW 1mph /  1.6km/h 7mph /  11.3km/h 87% 0.00in /  0mm 686 W/m2
09:30 74.7 °F /  23.7 °C 69.8 °F /  21 °C 29.97in /  1014.8hPa SW 2mph /  3.2km/h 6mph /  9.7km/h 85% 0.00in /  0mm 211 W/m2
09:40 74.1 °F /  23.4 °C 69.3 °F /  20.7 °C 29.98in /  1015.1hPa WSW 3mph /  4.8km/h 7mph /  11.3km/h 85% 0.00in /  0mm 604 W/m2
09:50 75.1 °F /  23.9 °C 70.3 °F /  21.3 °C 29.98in /  1015.1hPa SW 3mph /  4.8km/h 8mph /  12.9km/h 85% 0.00in /  0mm 411 W/m2
10:00 75.6 °F /  24.2 °C 70.4 °F /  21.3 °C 29.97in /  1014.8hPa SW 3mph /  4.8km/h 11mph /  17.7km/h 84% 0.00in /  0mm 781 W/m2
10:10 76.3 °F /  24.6 °C 70 °F /  21.1 °C 29.97in /  1014.8hPa WSW 6mph /  9.7km/h 10mph /  16.1km/h 81% 0.00in /  0mm 802 W/m2
10:20 77.1 °F /  25.1 °C 70.1 °F /  21.2 °C 29.97in /  1014.8hPa WSW 6mph /  9.7km/h 10mph /  16.1km/h 79% 0.00in /  0mm 822 W/m2
10:30 77.2 °F /  25.1 °C 70.2 °F /  21.2 °C 29.97in /  1014.8hPa WSW 5mph /  8km/h 18mph /  29km/h 79% 0.00in /  0mm 282 W/m2
10:40 76.5 °F /  24.7 °C 69.8 °F /  21 °C 29.97in /  1014.8hPa SW 5mph /  8km/h 9mph /  14.5km/h 80% 0.00in /  0mm 472 W/m2
10:50 76.8 °F /  24.9 °C 70.2 °F /  21.2 °C 29.97in /  1014.8hPa SW 8mph /  12.9km/h 14mph /  22.5km/h 80% 0.00in /  0mm 602 W/m2
11:00 76.3 °F /  24.6 °C 70 °F /  21.1 °C 29.98in /  1015.1hPa SW 8mph /  12.9km/h 16mph /  25.7km/h 81% 0.00in /  0mm 358 W/m2
11:10 74.9 °F /  23.8 °C 69.7 °F /  20.9 °C 29.98in /  1015.1hPa SW 8mph /  12.9km/h 15mph /  24.1km/h 84% 0.00in /  0mm 291 W/m2
11:20 74.1 °F /  23.4 °C 69.3 °F /  20.7 °C 29.98in /  1015.1hPa SW 8mph /  12.9km/h 14mph /  22.5km/h 85% 0.00in /  0mm 403 W/m2
11:30 74.5 °F /  23.6 °C 69.7 °F /  20.9 °C 29.98in /  1015.1hPa SW 8mph /  12.9km/h 13mph /  20.9km/h 85% 0.00in /  0mm 710 W/m2
11:40 75.4 °F /  24.1 °C 70.6 °F /  21.4 °C 29.98in /  1015.1hPa SW 7mph /  11.3km/h 12mph /  19.3km/h 85% 0.00in /  0mm 671 W/m2
11:50 75.7 °F /  24.3 °C 70.2 °F /  21.2 °C 29.98in /  1015.1hPa SW 6mph /  9.7km/h 12mph /  19.3km/h 83% 0.00in /  0mm 806 W/m2
12:00 76.1 °F /  24.5 °C 70.5 °F /  21.4 °C 29.97in /  1014.8hPa SW 7mph /  11.3km/h 12mph /  19.3km/h 83% 0.00in /  0mm 602 W/m2
12:10 76.3 °F /  24.6 °C 70 °F /  21.1 °C 29.98in /  1015.1hPa SW 7mph /  11.3km/h 11mph /  17.7km/h 81% 0.00in /  0mm 952 W/m2
12:20 76.8 °F /  24.9 °C 69.8 °F /  21 °C 29.97in /  1014.8hPa SW 10mph /  16.1km/h 14mph /  22.5km/h 79% 0.00in /  0mm 739 W/m2
12:30 77.2 °F /  25.1 °C 70.2 °F /  21.2 °C 29.97in /  1014.8hPa SW 6mph /  9.7km/h 14mph /  22.5km/h 79% 0.00in /  0mm 719 W/m2
12:40 77.7 °F /  25.4 °C 69.9 °F /  21.1 °C 29.97in /  1014.8hPa West 8mph /  12.9km/h 12mph /  19.3km/h 77% 0.00in /  0mm 236 W/m2
12:50 78.4 °F /  25.8 °C 70.2 °F /  21.2 °C 29.97in /  1014.8hPa West 8mph /  12.9km/h 13mph /  20.9km/h 76% 0.00in /  0mm 455 W/m2
13:00 78.4 °F /  25.8 °C 69.8 °F /  21 °C 29.97in /  1014.8hPa West 5mph /  8km/h 13mph /  20.9km/h 75% 0.00in /  0mm 360 W/m2
13:10 78.9 °F /  26.1 °C 71.1 °F /  21.7 °C 29.97in /  1014.8hPa West 9mph /  14.5km/h 16mph /  25.7km/h 77% 0.00in /  0mm 705 W/m2
13:20 79.5 °F /  26.4 °C 70.5 °F /  21.4 °C 29.97in /  1014.8hPa West 9mph /  14.5km/h 17mph /  27.4km/h 74% 0.00in /  0mm 475 W/m2
13:30 78.4 °F /  25.8 °C 69.5 °F /  20.8 °C 29.97in /  1014.8hPa WSW 5mph /  8km/h 14mph /  22.5km/h 74% 0.00in /  0mm 330 W/m2
13:40 77.9 °F /  25.5 °C 70.1 °F /  21.2 °C 29.97in /  1014.8hPa West 6mph /  9.7km/h 14mph /  22.5km/h 77% 0.00in /  0mm 924 W/m2
13:50 78.4 °F /  25.8 °C 70.2 °F /  21.2 °C 29.97in /  1014.8hPa West 8mph /  12.9km/h 14mph /  22.5km/h 76% 0.00in /  0mm 448 W/m2
14:00 78.3 °F /  25.7 °C 69.7 °F /  20.9 °C 29.96in /  1014.4hPa West 5mph /  8km/h 14mph /  22.5km/h 75% 0.00in /  0mm 523 W/m2
14:10 78.3 °F /  25.7 °C 70.5 °F /  21.4 °C 29.96in /  1014.4hPa West 8mph /  12.9km/h 14mph /  22.5km/h 77% 0.00in /  0mm 485 W/m2
14:20 78.1 °F /  25.6 °C 69.6 °F /  20.9 °C 29.96in /  1014.4hPa WSW 10mph /  16.1km/h 15mph /  24.1km/h 75% 0.00in /  0mm 352 W/m2
14:30 77.8 °F /  25.4 °C 69.2 °F /  20.7 °C 29.96in /  1014.4hPa West 8mph /  12.9km/h 14mph /  22.5km/h 75% 0.00in /  0mm 453 W/m2
14:40 78.1 °F /  25.6 °C 69.5 °F /  20.8 °C 29.96in /  1014.4hPa West 8mph /  12.9km/h 17mph /  27.4km/h 75% 0.00in /  0mm 403 W/m2
14:50 78.1 °F /  25.6 °C 69.5 °F /  20.8 °C 29.96in /  1014.4hPa West 7mph /  11.3km/h 16mph /  25.7km/h 75% 0.00in /  0mm 821 W/m2
15:00 79 °F /  26.1 °C 70 °F /  21.1 °C 29.96in /  1014.4hPa West 12mph /  19.3km/h 16mph /  25.7km/h 74% 0.00in /  0mm 542 W/m2
15:10 79.2 °F /  26.2 °C 69.8 °F /  21 °C 29.96in /  1014.4hPa West 8mph /  12.9km/h 15mph /  24.1km/h 73% 0.00in /  0mm 389 W/m2
15:20 79.3 °F /  26.3 °C 70.3 °F /  21.3 °C 29.96in /  1014.4hPa West 7mph /  11.3km/h 15mph /  24.1km/h 74% 0.00in /  0mm 758 W/m2
15:30 79.9 °F /  26.6 °C 70.4 °F /  21.3 °C 29.96in /  1014.4hPa West 7mph /  11.3km/h 14mph /  22.5km/h 73% 0.00in /  0mm 357 W/m2
15:40 80 °F /  26.7 °C 70.2 °F /  21.2 °C 29.96in /  1014.4hPa WSW 8mph /  12.9km/h 14mph /  22.5km/h 72% 0.00in /  0mm 295 W/m2
15:50 80.2 °F /  26.8 °C 70.8 °F /  21.6 °C 29.97in /  1014.8hPa West 8mph /  12.9km/h 15mph /  24.1km/h 73% 0.00in /  0mm 685 W/m2
16:00 80.8 °F /  27.1 °C 70.9 °F /  21.6 °C 29.96in /  1014.4hPa West 8mph /  12.9km/h 16mph /  25.7km/h 72% 0.00in /  0mm 515 W/m2
16:10 80.1 °F /  26.7 °C 70.3 °F /  21.3 °C 29.97in /  1014.8hPa WSW 9mph /  14.5km/h 15mph /  24.1km/h 72% 0.00in /  0mm 632 W/m2
16:20 80.3 °F /  26.8 °C 70.4 °F /  21.3 °C 29.97in /  1014.8hPa West 9mph /  14.5km/h 16mph /  25.7km/h 72% 0.00in /  0mm 289 W/m2
16:30 79.2 °F /  26.2 °C 69.8 °F /  21 °C 29.97in /  1014.8hPa WSW 7mph /  11.3km/h 18mph /  29km/h 73% 0.00in /  0mm 283 W/m2
16:40 78.6 °F /  25.9 °C 69.6 °F /  20.9 °C 29.97in /  1014.8hPa WSW 8mph /  12.9km/h 14mph /  22.5km/h 74% 0.00in /  0mm 222 W/m2
16:50 78.1 °F /  25.6 °C 69.1 °F /  20.6 °C 29.98in /  1015.1hPa WSW 10mph /  16.1km/h 15mph /  24.1km/h 74% 0.00in /  0mm 205 W/m2
17:00 77.7 °F /  25.4 °C 69.2 °F /  20.7 °C 29.98in /  1015.1hPa WSW 10mph /  16.1km/h 16mph /  25.7km/h 75% 0.00in /  0mm 171 W/m2
17:10 77.5 °F /  25.3 °C 68.9 °F /  20.5 °C 29.98in /  1015.1hPa WSW 9mph /  14.5km/h 15mph /  24.1km/h 75% 0.00in /  0mm 182 W/m2
17:20 77.4 °F /  25.2 °C 69.6 °F /  20.9 °C 29.98in /  1015.1hPa WSW 6mph /  9.7km/h 12mph /  19.3km/h 77% 0.00in /  0mm 190 W/m2
17:30 77.4 °F /  25.2 °C 69.6 °F /  20.9 °C 29.98in /  1015.1hPa WSW 6mph /  9.7km/h 13mph /  20.9km/h 77% 0.00in /  0mm 175 W/m2
17:40 77.4 °F /  25.2 °C 69.6 °F /  20.9 °C 29.99in /  1015.5hPa WSW 6mph /  9.7km/h 13mph /  20.9km/h 77% 0.00in /  0mm 186 W/m2
17:50 77 °F /  25 °C 69.3 °F /  20.7 °C 29.99in /  1015.5hPa WSW 6mph /  9.7km/h 12mph /  19.3km/h 77% 0.00in /  0mm 182 W/m2
18:00 77 °F /  25 °C 69.2 °F /  20.7 °C 29.99in /  1015.5hPa WSW 6mph /  9.7km/h 12mph /  19.3km/h 77% 0.00in /  0mm 231 W/m2
18:10 77.3 °F /  25.2 °C 69.6 °F /  20.9 °C 29.99in /  1015.5hPa WSW 7mph /  11.3km/h 12mph /  19.3km/h 77% 0.00in /  0mm 132 W/m2
18:20 77.2 °F /  25.1 °C 69.4 °F /  20.8 °C 29.99in /  1015.5hPa WSW 6mph /  9.7km/h 13mph /  20.9km/h 77% 0.00in /  0mm 233 W/m2
18:30 77.4 °F /  25.2 °C 69.6 °F /  20.9 °C 29.99in /  1015.5hPa WSW 8mph /  12.9km/h 12mph /  19.3km/h 77% 0.00in /  0mm 129 W/m2
18:40 77 °F /  25 °C 68.5 °F /  20.3 °C 29.99in /  1015.5hPa WSW 7mph /  11.3km/h 15mph /  24.1km/h 75% 0.00in /  0mm 148 W/m2
18:50 77 °F /  25 °C 68.1 °F /  20.1 °C 30.00in /  1015.8hPa West 7mph /  11.3km/h 15mph /  24.1km/h 74% 0.00in /  0mm 109 W/m2
19:00 76.8 °F /  24.9 °C 67.9 °F /  19.9 °C 30.00in /  1015.8hPa West 6mph /  9.7km/h 13mph /  20.9km/h 74% 0.00in /  0mm 89 W/m2
19:10 76.6 °F /  24.8 °C 68.1 °F /  20.1 °C 30.01in /  1016.1hPa WSW 6mph /  9.7km/h 13mph /  20.9km/h 75% 0.00in /  0mm 59 W/m2
19:20 76.5 °F /  24.7 °C 67.9 °F /  19.9 °C 30.01in /  1016.1hPa WSW 3mph /  4.8km/h 9mph /  14.5km/h 75% 0.00in /  0mm 48 W/m2
19:30 75.9 °F /  24.4 °C 68.2 °F /  20.1 °C 30.01in /  1016.1hPa West 6mph /  9.7km/h 9mph /  14.5km/h 77% 0.00in /  0mm 35 W/m2
19:40 75.7 °F /  24.3 °C 68 °F /  20 °C 30.01in /  1016.1hPa West 5mph /  8km/h 8mph /  12.9km/h 77% 0.00in /  0mm 26 W/m2
19:50 75.4 °F /  24.1 °C 68 °F /  20 °C 30.01in /  1016.1hPa WSW 2mph /  3.2km/h 5mph /  8km/h 78% 0.00in /  0mm 14 W/m2
20:00 75.2 °F /  24 °C 67.9 °F /  19.9 °C 30.02in /  1016.5hPa WSW 2mph /  3.2km/h 5mph /  8km/h 78% 0.00in /  0mm 7 W/m2
20:10 74.8 °F /  23.8 °C 67.9 °F /  19.9 °C 30.02in /  1016.5hPa SW 3mph /  4.8km/h 5mph /  8km/h 79% 0.00in /  0mm 0 W/m2
20:20 74.5 °F /  23.6 °C 67.9 °F /  19.9 °C 30.02in /  1016.5hPa SW 2mph /  3.2km/h 5mph /  8km/h 80% 0.00in /  0mm 0 W/m2
20:30 74.1 °F /  23.4 °C 67.6 °F /  19.8 °C 30.02in /  1016.5hPa SW 1mph /  1.6km/h 4mph /  6.4km/h 80% 0.00in /  0mm 0 W/m2
20:40 73.9 °F /  23.3 °C 67.4 °F /  19.7 °C 30.03in /  1016.8hPa SW 2mph /  3.2km/h 4mph /  6.4km/h 80% 0.00in /  0mm 0 W/m2
20:50 73.6 °F /  23.1 °C 67.4 °F /  19.7 °C 30.04in /  1017.2hPa West 2mph /  3.2km/h 5mph /  8km/h 81% 0.00in /  0mm 0 W/m2
21:00 73 °F /  22.8 °C 66.9 °F /  19.4 °C 30.04in /  1017.2hPa West 1mph /  1.6km/h 5mph /  8km/h 81% 0.00in /  0mm 0 W/m2
21:10 72.7 °F /  22.6 °C 66.5 °F /  19.2 °C 30.04in /  1017.2hPa WSW 2mph /  3.2km/h 4mph /  6.4km/h 81% 0.00in /  0mm 0 W/m2
21:20 72.3 °F /  22.4 °C 66.9 °F /  19.4 °C 30.04in /  1017.2hPa SW 1mph /  1.6km/h 5mph /  8km/h 83% 0.00in /  0mm 0 W/m2
21:30 72 °F /  22.2 °C 66.5 °F /  19.2 °C 30.04in /  1017.2hPa SSW 2mph /  3.2km/h 6mph /  9.7km/h 83% 0.00in /  0mm 0 W/m2
21:40 71.4 °F /  21.9 °C 66.4 °F /  19.1 °C 30.04in /  1017.2hPa SSW 1mph /  1.6km/h 6mph /  9.7km/h 84% 0.00in /  0mm 0 W/m2
21:50 70.9 °F /  21.6 °C 65.8 °F /  18.8 °C 30.05in /  1017.5hPa South 3mph /  4.8km/h 5mph /  8km/h 84% 0.00in /  0mm 0 W/m2
22:00 70.4 °F /  21.3 °C 65.6 °F /  18.7 °C 30.05in /  1017.5hPa East 2mph /  3.2km/h 5mph /  8km/h 85% 0.00in /  0mm 0 W/m2
22:10 70 °F /  21.1 °C 65.3 °F /  18.5 °C 30.05in /  1017.5hPa SSW 1mph /  1.6km/h 5mph /  8km/h 85% 0.00in /  0mm 0 W/m2
22:20 69.6 °F /  20.9 °C 65.2 °F /  18.4 °C 30.05in /  1017.5hPa SW 1mph /  1.6km/h 3mph /  4.8km/h 86% 0.00in /  0mm 0 W/m2
22:30 69.1 °F /  20.6 °C 64.7 °F /  18.2 °C 30.05in /  1017.5hPa SSE 2mph /  3.2km/h 4mph /  6.4km/h 86% 0.00in /  0mm 0 W/m2
22:40 68.7 °F /  20.4 °C 65 °F /  18.3 °C 30.06in /  1017.8hPa Calm   4mph /  6.4km/h 88% 0.00in /  0mm 0 W/m2
22:50 68.4 °F /  20.2 °C 65 °F /  18.3 °C 30.06in /  1017.8hPa SSE 1mph /  1.6km/h 4mph /  6.4km/h 89% 0.00in /  0mm 0 W/m2
23:00 68.2 °F /  20.1 °C 64.8 °F /  18.2 °C 30.06in /  1017.8hPa SSE 1mph /  1.6km/h 4mph /  6.4km/h 89% 0.00in /  0mm 0 W/m2
23:10 68.2 °F /  20.1 °C 65.1 °F /  18.4 °C 30.06in /  1017.8hPa Calm   6mph /  9.7km/h 90% 0.00in /  0mm 0 W/m2
23:20 68.2 °F /  20.1 °C 65.1 °F /  18.4 °C 30.06in /  1017.8hPa NE 2mph /  3.2km/h 3mph /  4.8km/h 90% 0.00in /  0mm 0 W/m2
23:30 68 °F /  20 °C 65.3 °F /  18.5 °C 30.06in /  1017.8hPa ENE 1mph /  1.6km/h 3mph /  4.8km/h 91% 0.00in /  0mm 0 W/m2
23:40 67.6 °F /  19.8 °C 64.9 °F /  18.3 °C 30.06in /  1017.8hPa Calm   2mph /  3.2km/h 91% 0.00in /  0mm 0 W/m2
23:50 67.3 °F /  19.6 °C 64.6 °F /  18.1 °C 30.07in /  1018.2hPa Calm   3mph /  4.8km/h 91% 0.00in /  0mm 0 W/m2
Knjazevac, Serbia
Compliments of Weather Underground - 2 mb